Latest Weather Observations for Batchelor

IDD60801

Issued at 8:35 am CST Saturday 23 August 2014 (issued every 30 minutes, with the page automatically refreshed every 10 minutes)

About weather observations | Map of weather stations | Latest weather observations for NT | Other Formats
Station Details ID: 014272 Name: BATCHELOR AIRPORT Lat: -13.05 Lon: 131.03 Height: 104.0 m
Data from the previous 72 hours. | See also: Recent months at Batchelor
Date/Time
CST
Temp
°C
App
Temp
°C
Dew
Point
Rel
Hum
%
Delta-T
°C
Wind Press
QNH
hPa
Press
MSL
hPa
Rain
since 9 am
mm
Dir
 
Spd
km/h
Gust
km/h
Spd
kts
Gust
kts
23/07:30am 12.9 10.4 1.3 45 5.0 ESE 4 4 2 2 1016.4 1015.9 0.0
23/07:00am 11.1 8.5 1.1 50 4.2 ESE 4 4 2 2 1015.9 - 0.0
23/06:30am 10.0 7.4 1.1 54 3.7 ESE 4 6 2 3 1015.5 1014.9 0.0
23/06:00am 10.4 8.6 1.2 53 3.8 E 0 2 0 1 1015.1 1014.5 0.0
23/05:30am 12.2 9.5 0.6 45 4.9 SE 4 6 2 3 1014.6 1014.0 0.0
23/05:00am 13.3 10.7 3.1 50 4.6 NNW 6 13 3 7 1014.6 - 0.0
23/04:30am 11.9 10.3 6.2 68 2.7 NNW 4 6 2 3 1014.3 1013.7 0.0
23/04:00am 11.8 10.7 6.9 72 2.4 NNW 2 4 1 2 1014.6 - 0.0
23/03:30am 10.7 9.9 6.6 76 1.9 CALM 0 2 0 1 1014.4 1013.8 0.0
23/03:00am 10.6 9.1 5.2 69 2.5 NNW 2 4 1 2 1014.6 1014.0 0.0
23/02:30am 12.3 11.0 6.1 66 2.9 NNW 2 2 1 1 1014.7 1014.1 0.0
23/02:00am 11.9 11.1 6.4 69 2.6 CALM 0 4 0 2 1015.0 - 0.0
23/01:30am 12.4 11.4 5.6 63 3.2 CALM 0 0 0 0 1015.0 1014.4 0.0
23/01:00am 14.2 12.5 6.1 58 3.9 NNW 4 4 2 2 1015.2 - 0.0
23/12:30am 14.7 13.5 6.5 58 4.0 NNW 2 4 1 2 1015.1 1014.5 0.0
23/12:00am 15.3 13.8 5.2 51 4.8 NNW 2 6 1 3 1015.3 1014.7 0.0
 
Date/Time
CST
Temp
°C
App
Temp
°C
Dew
Point
Rel
Hum
%
Delta-T
°C
Wind Press
QNH
hPa
Press
MSL
hPa
Rain
since 9 am
mm
Dir
 
Spd
km/h
Gust
km/h
Spd
kts
Gust
kts
22/11:30pm 16.5 14.8 3.9 43 5.9 N 2 6 1 3 1015.4 1014.8 0.0
22/11:00pm 20.2 18.2 4.3 35 7.7 SSW 4 9 2 5 1015.2 - 0.0
22/10:30pm 15.7 13.1 -1.4 31 7.1 SE 2 4 1 2 1015.0 1014.4 0.0
22/10:00pm 15.8 13.2 -1.7 30 7.2 SE 2 6 1 3 1014.9 - 0.0
22/09:30pm 16.4 14.1 -2.1 28 7.6 CALM 0 0 0 0 1014.7 1014.1 0.0
22/09:00pm 16.6 13.9 -2.5 27 7.8 SE 2 4 1 2 1014.5 1013.9 0.0
22/08:30pm 17.5 14.3 -3.3 24 8.4 SE 4 4 2 2 1014.3 1013.7 0.0
22/08:00pm 18.6 15.3 -4.1 21 9.2 SE 4 6 2 3 1013.8 - 0.0
22/07:30pm 20.1 17.0 -2.9 21 9.6 SSE 4 6 2 3 1013.4 1012.8 0.0
22/07:00pm 22.5 18.6 -6.3 14 11.6 SSE 6 6 3 3 1013.1 - 0.0
22/06:30pm 26.8 22.5 -8.7 9 14.2 SSE 7 11 4 6 1012.5 1012.0 0.0
22/06:00pm 28.7 24.0 -8.8 8 15.3 SE 9 13 5 7 1012.3 1011.8 0.0
22/05:30pm 29.8 24.8 -8.0 8 15.8 ESE 11 17 6 9 1011.9 1011.4 0.0
22/05:00pm 30.1 25.8 -9.4 7 16.1 SE 7 13 4 7 1011.8 - 0.0
22/04:30pm 29.9 24.9 -7.9 8 15.8 SE 11 20 6 11 1011.8 1011.3 0.0
22/04:00pm 30.7 25.3 -9.0 7 16.4 ESE 13 20 7 11 1011.7 - 0.0
22/03:30pm 30.5 25.6 -7.4 8 16.1 SE 11 24 6 13 1011.8 1011.3 0.0
22/03:00pm 29.9 23.1 -9.6 7 16.0 SE 20 28 11 15 1012.2 1011.7 0.0
22/02:30pm 30.0 25.0 -7.8 8 15.8 S 11 22 6 12 1012.9 1012.3 0.0
22/02:00pm 29.1 23.7 -8.5 8 15.4 SSE 13 24 7 13 1013.3 - 0.0
22/01:30pm 28.6 23.9 -8.8 8 15.2 E 9 19 5 10 1014.0 1013.4 0.0
22/01:00pm 28.3 23.0 -7.6 9 14.9 SE 13 26 7 14 1014.6 - 0.0
22/12:30pm 28.0 21.9 -7.8 9 14.7 SE 17 24 9 13 1015.2 1014.6 0.0
22/12:00pm 27.4 21.3 -8.2 9 14.4 E 17 26 9 14 1015.9 1015.3 0.0
22/11:30am 26.8 20.0 -8.7 9 14.2 ESE 20 32 11 17 1016.5 1016.0 0.0
22/11:00am 26.6 19.6 -7.5 10 13.9 E 22 30 12 16 1016.8 - 0.0
22/10:30am 26.3 19.9 -6.5 11 13.6 E 19 26 10 14 1017.2 1016.7 0.0
22/10:00am 24.6 18.4 -4.6 14 12.3 E 19 26 10 14 1017.6 - 0.0
22/09:30am 23.8 17.9 -5.3 14 12.0 ESE 17 26 9 14 1017.8 1017.3 0.0
22/09:00am 22.2 16.0 -4.8 16 11.1 ESE 19 24 10 13 1017.5 1017.0 0.0
22/08:30am 21.0 15.6 -4.9 17 10.5 ESE 15 22 8 12 1017.3 1016.8 0.0
22/08:00am 19.9 14.5 -4.4 19 9.9 ESE 15 20 8 11 1017.1 - 0.0
22/07:30am 18.1 14.0 -3.3 23 8.7 ESE 9 13 5 7 1016.9 1016.4 0.0
22/07:00am 16.9 12.5 -2.7 26 8.0 ESE 11 17 6 9 1016.6 - 0.0
22/06:30am 14.7 11.2 -1.4 33 6.6 ESE 7 9 4 5 1016.4 1015.9 0.0
22/06:00am 14.3 10.9 -0.9 35 6.3 SE 7 9 4 5 1016.1 1015.6 0.0
22/05:30am 13.0 10.3 0.4 42 5.3 ESE 4 6 2 3 1015.8 1015.2 0.0
22/05:00am 10.9 8.2 2.7 57 3.6 SE 6 7 3 4 1015.6 - 0.0
22/04:30am 11.8 9.5 2.8 54 3.9 ESE 4 4 2 2 1015.6 1015.0 0.0
22/04:00am 13.4 11.2 3.2 50 4.6 ENE 4 6 2 3 1015.7 - 0.0
22/03:30am 12.8 10.7 4.0 55 4.0 SW 4 11 2 6 1015.4 1014.8 0.0
22/03:00am 13.3 11.5 1.3 44 5.2 CALM 0 0 0 0 1015.2 1014.6 0.0
22/02:30am 13.4 11.7 1.7 45 5.1 CALM 0 0 0 0 1015.4 1014.8 0.0
22/02:00am 14.1 12.3 1.1 41 5.6 CALM 0 0 0 0 1015.5 - 0.0
22/01:30am 14.8 13.0 1.0 39 6.0 CALM 0 2 0 1 1015.6 1015.0 0.0
22/01:00am 16.0 13.5 -0.7 32 7.0 NW 2 4 1 2 1015.6 - 0.0
22/12:30am 18.7 15.9 -0.7 27 8.4 NW 4 6 2 3 1015.6 1015.0 0.0
22/12:00am 20.4 17.2 -3.3 20 9.9 SE 4 7 2 4 1015.7 1015.1 0.0
 
Date/Time
CST
Temp
°C
App
Temp
°C
Dew
Point
Rel
Hum
%
Delta-T
°C
Wind Press
QNH
hPa
Press
MSL
hPa
Rain
since 9 am
mm
Dir
 
Spd
km/h
Gust
km/h
Spd
kts
Gust
kts
21/11:30pm 23.4 19.2 -3.8 16 11.5 SE 9 11 5 6 1015.6 1015.0 0.0
21/11:00pm 23.1 19.0 -3.3 17 11.3 SE 9 11 5 6 1015.6 - 0.0
21/10:30pm 22.5 18.9 -2.2 19 10.7 SE 7 9 4 5 1015.5 1014.9 0.0
21/10:00pm 21.9 18.4 -1.4 21 10.2 SE 7 9 4 5 1015.5 - 0.0
21/09:30pm 22.5 19.1 -0.9 21 10.4 SE 7 9 4 5 1015.2 1014.6 0.0
21/09:00pm 22.5 19.2 -0.9 21 10.4 SSE 6 9 3 5 1015.0 1014.4 0.0
21/08:30pm 22.6 19.3 -0.2 22 10.3 SSE 7 9 4 5 1014.7 1014.1 0.0
21/08:00pm 22.0 18.8 -0.7 22 10.1 SSE 6 7 3 4 1014.5 - 0.0
21/07:30pm 24.0 20.6 -1.8 18 11.4 SSE 6 7 3 4 1014.1 1013.5 0.0
21/07:00pm 25.9 22.5 -1.8 16 12.5 S 6 7 3 4 1013.7 - 0.0
21/06:30pm 27.8 24.1 -3.1 13 13.8 S 7 13 4 7 1013.2 1012.6 0.0
21/06:00pm 29.3 25.4 -4.2 11 14.9 S 7 13 4 7 1012.8 1012.2 0.0
21/05:30pm 30.4 26.1 -4.6 10 15.6 S 9 22 5 12 1012.3 1011.8 0.0
21/05:00pm 30.7 26.1 -4.4 10 15.7 SE 11 17 6 9 1011.9 - 0.0
21/04:30pm 30.9 25.8 -5.6 9 16.0 SSE 13 22 7 12 1011.8 1011.3 0.0
21/04:00pm 31.5 25.3 -5.2 9 16.3 ESE 19 26 10 14 1011.8 - 0.0
21/03:30pm 31.3 25.8 -5.3 9 16.2 SSE 15 26 8 14 1012.1 1011.6 0.0
21/03:00pm 31.5 26.9 -3.8 10 16.0 S 11 22 6 12 1012.4 1011.9 0.0
21/02:30pm 30.7 24.9 -4.4 10 15.7 S 17 20 9 11 1013.1 1012.5 0.0
21/02:00pm 30.6 24.3 -4.4 10 15.6 ESE 20 30 11 16 1013.6 - 0.0
21/01:30pm 30.5 24.9 -3.3 11 15.4 SE 17 26 9 14 1014.0 1013.4 0.0
21/01:00pm 29.7 23.4 -3.9 11 15.0 SE 20 30 11 16 1014.6 - 0.0
21/12:30pm 29.3 22.7 -3.0 12 14.6 SE 22 33 12 18 1015.0 1014.4 0.0
21/12:00pm 28.3 21.8 -2.7 13 14.0 ESE 22 32 12 17 1015.4 1014.8 0.0
21/11:30am 28.1 22.4 -0.9 15 13.5 ESE 19 30 10 16 1015.7 1015.1 0.0
21/11:00am 26.8 19.7 -1.1 16 12.8 ESE 26 33 14 18 1016.1 - 0.0
21/10:30am 26.4 19.4 -0.6 17 12.5 E 26 39 14 21 1016.4 1015.9 0.0
21/10:00am 24.6 16.6 0.2 20 11.3 ESE 32 41 17 22 1016.6 - 0.0
21/09:30am 24.1 17.0 1.1 22 10.8 ESE 28 41 15 22 1016.6 1016.1 0.0
21/09:15am 23.1 15.9 0.9 23 10.3 ESE 28 44 15 24 1016.5 - 0.0
21/09:00am 23.1 17.5 1.5 24 10.1 ESE 20 26 11 14 1016.5 1016.0 0.0
21/08:30am 21.9 16.9 1.6 26 9.4 ESE 17 24 9 13 1016.2 1015.7 0.0
21/08:00am 20.6 16.0 1.5 28 8.8 SE 15 19 8 10 1015.9 - 0.0
21/07:30am 19.2 15.3 1.2 30 8.1 SE 11 17 6 9 1015.5 1014.9 0.0
21/07:00am 18.6 14.7 1.2 31 7.8 SE 11 19 6 10 1015.1 - 0.0
21/06:30am 18.8 14.7 2.2 33 7.6 ESE 13 19 7 10 1014.6 1014.0 0.0
21/06:00am 19.1 15.5 2.9 34 7.6 SE 11 17 6 9 1014.4 1013.8 0.0
21/05:30am 18.8 15.5 6.3 44 6.2 SE 13 17 7 9 1014.1 1013.5 0.0
21/05:00am 15.9 14.7 10.4 70 2.9 ESE 7 7 4 4 1013.8 - 0.0
21/04:30am 15.4 16.5 13.6 89 1.0 CALM 0 0 0 0 1013.6 1013.0 0.0
21/04:00am 16.4 17.5 14.6 89 1.0 S 2 4 1 2 1013.5 - 0.0
21/03:30am 16.5 17.9 14.5 88 1.2 CALM 0 0 0 0 1013.6 1013.0 0.0
21/03:00am 17.7 18.7 16.4 92 0.8 S 6 9 3 5 1013.8 1013.2 0.0
21/02:30am 16.2 17.3 14.7 91 0.9 W 2 2 1 1 1014.0 1013.4 0.0
21/02:00am 16.2 17.7 14.6 90 0.9 CALM 0 0 0 0 1014.2 - 0.0
21/01:30am 16.9 18.7 15.6 92 0.8 CALM 0 0 0 0 1014.3 1013.7 0.0
21/01:00am 17.1 18.9 15.6 91 0.9 CALM 0 0 0 0 1014.5 - 0.0
21/12:30am 17.1 18.8 15.3 89 1.1 CALM 0 0 0 0 1014.8 1014.2 0.0
21/12:00am 17.6 19.3 15.2 86 1.4 CALM 0 2 0 1 1015.1 1014.5 0.0
 
Date/Time
CST
Temp
°C
App
Temp
°C
Dew
Point
Rel
Hum
%
Delta-T
°C
Wind Press
QNH
hPa
Press
MSL
hPa
Rain
since 9 am
mm
Dir
 
Spd
km/h
Gust
km/h
Spd
kts
Gust
kts
20/11:30pm 17.9 19.2 14.2 79 2.1 CALM 0 0 0 0 1015.2 1014.6 0.0
20/11:00pm 17.9 18.3 12.6 71 3.0 W 2 4 1 2 1015.4 - 0.0
20/10:30pm 19.8 20.2 13.7 68 3.5 W 4 4 2 2 1015.4 1014.8 0.0
20/10:00pm 21.5 22.8 15.1 67 3.8 WNW 2 6 1 3 1015.4 - 0.0
20/09:30pm 21.7 22.2 13.9 61 4.5 NW 4 6 2 3 1015.3 1014.7 0.0
20/09:00pm 22.6 22.5 13.4 56 5.3 NW 6 7 3 4 1015.1 1014.5 0.0
20/08:30pm 23.7 23.8 13.8 53 5.8 NW 6 17 3 9 1014.7 1014.1 0.0
20/08:00pm 21.1 19.9 8.0 43 6.8 S 4 11 2 6 1014.1 - 0.0
20/07:30pm 23.0 22.2 6.7 35 8.4 CALM 0 0 0 0 1013.5 1012.9 0.0
20/07:00pm 24.5 23.7 6.7 32 9.3 CALM 0 0 0 0 1013.2 - 0.0
20/06:30pm 27.5 26.0 5.1 24 11.6 ESE 2 6 1 3 1012.8 1012.2 0.0
20/06:00pm 30.2 27.4 3.3 18 13.7 E 7 9 4 5 1012.5 1012.0 0.0
20/05:30pm 30.8 28.4 4.5 19 13.7 E 6 9 3 5 1012.3 1011.8 0.0
20/05:00pm 31.2 29.3 4.9 19 13.8 SE 4 13 2 7 1012.3 - 0.0
20/04:30pm 31.0 28.1 4.7 19 13.8 ESE 9 13 5 7 1012.2 1011.7 0.0
20/04:00pm 31.1 28.8 4.8 19 13.8 ESE 6 11 3 6 1012.3 - 0.0
20/03:30pm 31.1 28.9 6.2 21 13.4 SE 7 13 4 7 1012.6 1012.1 0.0
20/03:00pm 30.5 28.0 5.0 20 13.4 S 7 13 4 7 1013.0 1012.4 0.0
20/02:30pm 30.8 28.9 6.6 22 13.0 E 6 11 3 6 1013.1 1012.5 0.0
20/02:00pm 30.6 28.1 6.5 22 13.0 ESE 9 17 5 9 1013.7 - 0.0
20/01:30pm 29.9 27.0 6.5 23 12.5 E 11 24 6 13 1014.2 1013.6 0.0
20/01:00pm 29.3 26.2 7.2 25 11.9 ESE 13 24 7 13 1014.8 - 0.0
20/12:30pm 29.2 26.0 8.3 27 11.5 E 15 24 8 13 1015.3 1014.7 0.0
20/12:00pm 28.1 25.3 8.4 29 10.8 E 13 26 7 14 1015.9 1015.3 0.0
20/11:30am 27.2 25.3 10.4 35 9.5 NE 11 20 6 11 1016.3 1015.8 0.0
20/11:00am 26.1 24.5 11.5 40 8.3 ENE 11 19 6 10 1016.8 - 0.0
20/10:30am 25.6 23.1 9.8 37 8.7 ENE 13 20 7 11 1016.9 1016.4 0.0
20/10:00am 24.5 21.0 7.2 33 9.1 E 15 24 8 13 1017.2 - 0.0
20/09:30am 22.8 17.7 2.8 27 9.6 ESE 19 26 10 14 1017.0 1016.5 0.0
20/09:00am 21.5 16.0 0.7 25 9.5 ESE 19 26 10 14 1016.9 1016.4 -

Other Formats:

Comma delimited format used in spreadsheet applications
http://www.bom.gov.au/fwo/IDD60801/IDD60801.94125.axf

JavaScript Object Notation format (JSON) in row-major order
http://www.bom.gov.au/fwo/IDD60801/IDD60801.94125.json